createdAt,value
2023-03-29T00:00:44.543Z,4.3
2023-03-29T00:01:47.377Z,4.3
2023-03-29T00:02:40.096Z,4.2
2023-03-29T00:03:40.134Z,4.2
2023-03-29T00:04:40.067Z,4.2
2023-03-29T00:05:40.024Z,4.2
2023-03-29T00:06:40.026Z,4.2
2023-03-29T00:07:40.027Z,4.2
2023-03-29T00:08:40.053Z,4.2
2023-03-29T00:09:40.029Z,4.2
2023-03-29T00:10:40.031Z,4.2
2023-03-29T00:11:40.028Z,4.2
2023-03-29T00:12:40.021Z,4.2
2023-03-29T00:13:40.173Z,4.2
2023-03-29T00:14:40.021Z,4.2
2023-03-29T00:15:40.026Z,4.2
2023-03-29T00:16:40.035Z,4.2
2023-03-29T00:17:40.067Z,4.2
2023-03-29T00:18:40.036Z,4.2
2023-03-29T00:19:40.031Z,4.2
2023-03-29T00:20:41.587Z,4.2
2023-03-29T00:21:44.810Z,4.2
2023-03-29T00:22:47.570Z,4.2
2023-03-29T00:23:40.027Z,4.2
2023-03-29T00:24:40.023Z,4.3
2023-03-29T00:25:40.036Z,4.3
2023-03-29T00:26:40.027Z,4.3
2023-03-29T00:27:40.025Z,4.3
2023-03-29T00:28:40.026Z,4.3
2023-03-29T00:29:40.027Z,4.3
2023-03-29T00:30:40.026Z,4.3
2023-03-29T00:31:40.037Z,4.3
2023-03-29T00:32:40.055Z,4.3
2023-03-29T00:33:40.032Z,4.3
2023-03-29T00:34:40.030Z,4.3
2023-03-29T00:35:40.036Z,4.3
2023-03-29T00:36:40.028Z,4.3
2023-03-29T00:37:40.045Z,4.3
2023-03-29T00:38:40.035Z,4.3
2023-03-29T00:39:40.029Z,4.3
2023-03-29T00:40:40.022Z,4.3
2023-03-29T00:41:41.638Z,4.3
2023-03-29T00:42:44.717Z,4.3
2023-03-29T00:43:47.643Z,4.3
2023-03-29T00:44:40.193Z,4.3
2023-03-29T00:45:40.190Z,4.3
2023-03-29T00:46:40.358Z,4.4
2023-03-29T00:47:40.171Z,4.4
2023-03-29T00:48:40.022Z,4.4
2023-03-29T00:49:40.027Z,4.4
2023-03-29T00:50:40.026Z,4.4
2023-03-29T00:51:40.025Z,4.4
2023-03-29T00:52:40.044Z,4.4
2023-03-29T00:53:40.022Z,4.4
2023-03-29T00:54:40.025Z,4.4
2023-03-29T00:55:40.025Z,4.4
2023-03-29T00:56:40.267Z,4.4
2023-03-29T00:57:40.043Z,4.4
2023-03-29T00:58:40.027Z,4.4
2023-03-29T00:59:40.039Z,4.4
2023-03-29T01:00:40.028Z,4.4
2023-03-29T01:01:40.039Z,4.5
2023-03-29T01:02:40.185Z,4.5
2023-03-29T01:03:42.086Z,4.5
2023-03-29T01:04:44.793Z,4.5
2023-03-29T01:06:40.063Z,4.5
2023-03-29T01:07:40.038Z,4.5
2023-03-29T01:08:40.028Z,4.5
2023-03-29T01:09:40.025Z,4.5
2023-03-29T01:10:40.031Z,4.5
2023-03-29T01:11:40.030Z,4.6
2023-03-29T01:12:40.038Z,4.6
2023-03-29T01:13:40.034Z,4.6
2023-03-29T01:14:40.038Z,4.6
2023-03-29T01:15:40.025Z,4.6
2023-03-29T01:16:40.078Z,4.6
2023-03-29T01:17:40.082Z,4.6
2023-03-29T01:18:40.030Z,4.6
2023-03-29T01:19:40.030Z,4.6
2023-03-29T01:20:40.036Z,4.6
2023-03-29T01:21:40.034Z,4.6
2023-03-29T01:22:40.056Z,4.6
2023-03-29T01:23:40.028Z,4.6
2023-03-29T01:24:42.232Z,4.6
2023-03-29T01:25:44.927Z,4.6
2023-03-29T01:26:40.028Z,4.6
2023-03-29T01:27:40.050Z,4.6
2023-03-29T01:28:40.036Z,4.6
2023-03-29T01:29:40.026Z,4.6
2023-03-29T01:30:40.032Z,4.6
2023-03-29T01:31:40.074Z,4.6
2023-03-29T01:32:40.059Z,4.7
2023-03-29T01:33:40.032Z,4.6
2023-03-29T01:34:40.032Z,4.7
2023-03-29T01:35:40.074Z,4.7
2023-03-29T01:36:40.036Z,4.6
2023-03-29T01:37:40.047Z,4.7
2023-03-29T01:38:40.036Z,4.7
2023-03-29T01:39:40.026Z,4.7
2023-03-29T01:40:40.029Z,4.7
2023-03-29T01:41:40.033Z,4.7
2023-03-29T01:42:40.053Z,4.7
2023-03-29T01:43:40.026Z,4.7
2023-03-29T01:44:40.034Z,4.7
2023-03-29T01:45:42.196Z,4.7
2023-03-29T01:46:44.984Z,4.7
2023-03-29T01:47:40.058Z,4.7
2023-03-29T01:48:40.045Z,4.7
2023-03-29T01:49:40.055Z,4.7
2023-03-29T01:50:40.026Z,4.7
2023-03-29T01:51:40.031Z,4.7
2023-03-29T01:52:40.055Z,4.7
2023-03-29T01:53:40.028Z,4.7
2023-03-29T01:54:40.039Z,4.8
2023-03-29T01:55:40.037Z,4.7
2023-03-29T01:56:40.047Z,4.8
2023-03-29T01:57:40.044Z,4.7
2023-03-29T01:58:40.027Z,4.8
2023-03-29T01:59:40.028Z,4.8
2023-03-29T02:00:40.023Z,4.8
2023-03-29T02:01:40.049Z,4.8
2023-03-29T02:02:40.121Z,4.8
2023-03-29T02:03:40.058Z,4.8
2023-03-29T02:04:40.024Z,4.8
2023-03-29T02:05:40.030Z,4.8
2023-03-29T02:06:42.292Z,4.8
2023-03-29T02:07:45.117Z,4.8
2023-03-29T02:08:40.042Z,4.8
2023-03-29T02:09:40.028Z,4.8
2023-03-29T02:10:40.039Z,4.8
2023-03-29T02:11:40.031Z,4.8
2023-03-29T02:12:40.027Z,4.8
2023-03-29T02:13:40.086Z,4.8
2023-03-29T02:14:40.026Z,4.8
2023-03-29T02:15:40.064Z,4.8
2023-03-29T02:16:40.027Z,4.8
2023-03-29T02:17:40.124Z,4.8
2023-03-29T02:18:40.045Z,4.8
2023-03-29T02:19:40.026Z,4.8
2023-03-29T02:20:40.034Z,4.8
2023-03-29T02:21:40.027Z,4.8
2023-03-29T02:22:40.025Z,4.8
2023-03-29T02:23:40.047Z,4.8
2023-03-29T02:24:40.056Z,4.8
2023-03-29T02:25:40.026Z,4.8
2023-03-29T02:26:40.031Z,4.8
2023-03-29T02:27:42.463Z,4.8
2023-03-29T02:28:45.154Z,4.8
2023-03-29T02:29:40.043Z,4.8
2023-03-29T02:30:40.037Z,4.8
2023-03-29T02:31:40.059Z,4.8
2023-03-29T02:32:40.101Z,4.9
2023-03-29T02:33:40.027Z,4.9
2023-03-29T02:34:40.097Z,4.9
2023-03-29T02:35:40.042Z,4.9
2023-03-29T02:36:40.023Z,4.9
2023-03-29T02:37:40.059Z,4.9
2023-03-29T02:38:40.031Z,4.9
2023-03-29T02:39:40.026Z,4.9
2023-03-29T02:40:40.040Z,4.9
2023-03-29T02:41:40.031Z,4.9
2023-03-29T02:42:40.045Z,4.9
2023-03-29T02:43:40.022Z,5
2023-03-29T02:44:40.037Z,5
2023-03-29T02:45:40.035Z,5
2023-03-29T02:46:40.044Z,5
2023-03-29T02:47:40.070Z,5
2023-03-29T02:48:42.399Z,5
2023-03-29T02:49:45.277Z,5
2023-03-29T02:50:40.037Z,5
2023-03-29T02:51:40.051Z,5
2023-03-29T02:52:40.044Z,5
2023-03-29T02:53:40.043Z,5
2023-03-29T02:54:40.050Z,5.1
2023-03-29T02:55:40.252Z,5
2023-03-29T02:56:40.048Z,5.1
2023-03-29T02:57:40.025Z,5.1
2023-03-29T02:58:40.032Z,5.1
2023-03-29T02:59:40.050Z,5.1
2023-03-29T03:00:40.031Z,5.1
2023-03-29T03:01:40.041Z,5.1
2023-03-29T03:02:40.040Z,5.1
2023-03-29T03:03:40.092Z,5.1
2023-03-29T03:04:40.059Z,5.1
2023-03-29T03:05:40.036Z,5.1
2023-03-29T03:06:40.040Z,5.1
2023-03-29T03:07:40.028Z,5.1
2023-03-29T03:08:40.038Z,5.1
2023-03-29T03:09:42.699Z,5.1
2023-03-29T03:10:45.308Z,5
2023-03-29T03:11:40.037Z,5.1
2023-03-29T03:12:40.101Z,5.1
2023-03-29T03:13:40.030Z,5.1
2023-03-29T03:14:40.226Z,5.1
2023-03-29T03:15:40.129Z,5.1
2023-03-29T03:16:40.190Z,5.1
2023-03-29T03:17:40.209Z,5.1
2023-03-29T03:18:40.033Z,5.1
2023-03-29T03:19:40.030Z,5.1
2023-03-29T03:20:40.030Z,5.1
2023-03-29T03:21:40.036Z,5.1
2023-03-29T03:22:40.029Z,5.2
2023-03-29T03:23:40.035Z,5.2
2023-03-29T03:24:40.042Z,5.2
2023-03-29T03:25:40.034Z,5.2
2023-03-29T03:26:40.044Z,5.2
2023-03-29T03:27:40.026Z,5.2
2023-03-29T03:28:40.030Z,5.2
2023-03-29T03:29:40.024Z,5.2
2023-03-29T03:30:42.672Z,5.2
2023-03-29T03:31:45.449Z,5.2
2023-03-29T03:32:40.040Z,5.2
2023-03-29T03:33:40.024Z,5.2
2023-03-29T03:34:40.028Z,5.2
2023-03-29T03:35:40.104Z,5.2
2023-03-29T03:36:40.029Z,5.2
2023-03-29T03:37:40.021Z,5.2
2023-03-29T03:38:40.027Z,5.2
2023-03-29T03:39:40.089Z,5.2
2023-03-29T03:40:40.055Z,5.2
2023-03-29T03:41:40.022Z,5.2
2023-03-29T03:42:40.044Z,5.2
2023-03-29T03:43:40.027Z,5.2
2023-03-29T03:44:40.032Z,5.2
2023-03-29T03:45:40.071Z,5.2
2023-03-29T03:46:40.027Z,5.3
2023-03-29T03:47:40.064Z,5.2
2023-03-29T03:48:40.030Z,5.3
2023-03-29T03:49:40.035Z,5.3
2023-03-29T03:50:40.041Z,5.3
2023-03-29T03:51:42.766Z,5.3
2023-03-29T03:52:40.096Z,5.3
2023-03-29T03:53:45.031Z,5.3
2023-03-29T03:54:40.053Z,5.3
2023-03-29T03:55:40.037Z,5.3
2023-03-29T03:56:40.125Z,5.3
2023-03-29T03:57:40.021Z,5.3
2023-03-29T03:58:40.022Z,5.3
2023-03-29T03:59:40.051Z,5.3
2023-03-29T04:00:40.018Z,5.3
2023-03-29T04:01:40.019Z,5.4
2023-03-29T04:02:40.066Z,5.4
2023-03-29T04:03:40.066Z,5.4
2023-03-29T04:04:40.066Z,5.4
2023-03-29T04:05:40.047Z,5.4
2023-03-29T04:06:41.738Z,5.4
2023-03-29T04:07:40.017Z,5.4
2023-03-29T04:08:40.027Z,5.4
2023-03-29T04:09:40.158Z,5.4
2023-03-29T04:10:40.021Z,5.4
2023-03-29T04:11:40.024Z,5.4
2023-03-29T04:12:40.027Z,5.4
2023-03-29T04:13:42.757Z,5.4
2023-03-29T04:14:45.688Z,5.4
2023-03-29T04:15:40.024Z,5.4
2023-03-29T04:16:40.108Z,5.4
2023-03-29T04:17:40.245Z,5.4
2023-03-29T04:18:40.149Z,5.4
2023-03-29T04:19:40.115Z,5.5
2023-03-29T04:20:40.022Z,5.5
2023-03-29T04:21:40.083Z,5.5
2023-03-29T04:22:40.154Z,5.5
2023-03-29T04:23:40.153Z,5.5
2023-03-29T04:24:40.139Z,5.5
2023-03-29T04:25:40.205Z,5.5
2023-03-29T04:26:40.297Z,5.5
2023-03-29T04:31:14.036Z,5.6
2023-03-29T04:31:40.303Z,5.6
2023-03-29T04:32:40.037Z,5.6
2023-03-29T04:33:40.017Z,5.6
2023-03-29T04:34:40.032Z,5.6
2023-03-29T04:35:40.065Z,5.6
2023-03-29T04:36:40.024Z,5.6
2023-03-29T04:37:40.027Z,5.6
2023-03-29T04:38:40.045Z,5.6
2023-03-29T04:39:40.018Z,5.6
2023-03-29T04:40:41.144Z,5.6
2023-03-29T04:41:44.106Z,5.6
2023-03-29T04:42:46.280Z,5.5
2023-03-29T04:43:40.309Z,5.6
2023-03-29T04:44:40.042Z,5.5
2023-03-29T04:45:40.025Z,5.6
2023-03-29T04:46:40.124Z,5.5
2023-03-29T04:47:40.057Z,5.5
2023-03-29T04:48:40.028Z,5.5
2023-03-29T04:49:40.026Z,5.5
2023-03-29T04:50:40.026Z,5.5
2023-03-29T04:51:40.062Z,5.5
2023-03-29T04:52:40.029Z,5.5
2023-03-29T04:53:40.040Z,5.5
2023-03-29T04:54:40.029Z,5.5
2023-03-29T04:55:40.034Z,5.5
2023-03-29T04:56:40.072Z,5.5
2023-03-29T04:57:40.030Z,5.5
2023-03-29T04:58:40.048Z,5.5
2023-03-29T04:59:40.110Z,5.5
2023-03-29T05:00:40.119Z,5.5
2023-03-29T05:01:41.442Z,5.5
2023-03-29T05:02:44.315Z,5.5
2023-03-29T05:03:47.040Z,5.4
2023-03-29T05:04:40.047Z,5.4
2023-03-29T05:05:40.036Z,5.4
2023-03-29T05:06:40.072Z,5.4
2023-03-29T05:07:40.271Z,5.4
2023-03-29T05:08:40.085Z,5.4
2023-03-29T05:09:40.031Z,5.4
2023-03-29T05:10:40.024Z,5.4
2023-03-29T05:11:40.048Z,5.3
2023-03-29T05:12:40.025Z,5.3
2023-03-29T05:13:40.027Z,5.3
2023-03-29T05:14:40.041Z,5.3
2023-03-29T05:15:41.195Z,5.3
2023-03-29T05:16:40.050Z,5.3
2023-03-29T05:17:40.077Z,5.3
2023-03-29T05:18:40.038Z,5.3
2023-03-29T05:19:40.026Z,5.3
2023-03-29T05:20:40.035Z,5.4
2023-03-29T05:21:40.047Z,5.4
2023-03-29T05:22:41.234Z,5.4
2023-03-29T05:23:44.158Z,5.4
2023-03-29T05:24:46.617Z,5.4
2023-03-29T05:25:40.026Z,5.4
2023-03-29T05:26:40.406Z,5.5
2023-03-29T05:27:40.029Z,5.5
2023-03-29T05:28:40.027Z,5.5
2023-03-29T05:29:40.029Z,5.5
2023-03-29T05:30:40.031Z,5.5
2023-03-29T05:31:40.055Z,5.6
2023-03-29T05:32:40.099Z,5.6
2023-03-29T05:33:40.070Z,5.6
2023-03-29T05:34:40.028Z,5.6
2023-03-29T05:35:40.047Z,5.7
2023-03-29T05:36:40.046Z,5.7
2023-03-29T05:37:40.044Z,5.7
2023-03-29T05:38:40.027Z,5.7
2023-03-29T05:39:40.044Z,5.7
2023-03-29T05:40:40.023Z,5.7
2023-03-29T05:41:40.307Z,5.7
2023-03-29T05:42:40.301Z,5.7
2023-03-29T05:43:41.389Z,5.7
2023-03-29T05:44:44.254Z,5.8
2023-03-29T05:45:47.226Z,5.8
2023-03-29T05:46:40.032Z,5.8
2023-03-29T05:47:40.212Z,5.8
2023-03-29T05:48:40.029Z,5.8
2023-03-29T05:49:40.040Z,5.9
2023-03-29T05:50:40.033Z,5.9
2023-03-29T05:51:40.021Z,5.9
2023-03-29T05:52:40.035Z,5.9
2023-03-29T05:54:40.057Z,6
2023-03-29T05:55:40.022Z,6
2023-03-29T05:56:40.055Z,6
2023-03-29T05:57:40.026Z,6.1
2023-03-29T05:58:40.034Z,6.1
2023-03-29T05:59:40.058Z,6.1
2023-03-29T06:00:40.025Z,6.1
2023-03-29T06:01:40.113Z,6.1
2023-03-29T06:02:40.105Z,6.1
2023-03-29T06:03:40.103Z,6.1
2023-03-29T06:04:40.132Z,6.1
2023-03-29T06:05:42.664Z,6.1
2023-03-29T06:06:45.595Z,6.2
2023-03-29T06:07:40.059Z,6.2
2023-03-29T06:08:40.034Z,6.2
2023-03-29T06:09:40.031Z,6.2
2023-03-29T06:10:40.024Z,6.2
2023-03-29T06:11:40.028Z,6.3
2023-03-29T06:12:40.053Z,6.3
2023-03-29T06:13:40.031Z,6.3
2023-03-29T06:14:40.045Z,6.3
2023-03-29T06:15:40.037Z,6.3
2023-03-29T06:16:41.467Z,6.3
2023-03-29T06:17:40.089Z,6.4
2023-03-29T06:18:40.135Z,6.4
2023-03-29T06:19:40.026Z,6.4
2023-03-29T06:20:40.032Z,6.4
2023-03-29T06:21:40.035Z,6.4
2023-03-29T06:22:40.027Z,6.4
2023-03-29T06:23:40.032Z,6.5
2023-03-29T06:24:40.037Z,6.5
2023-03-29T06:25:40.982Z,6.5
2023-03-29T06:26:44.440Z,6.5
2023-03-29T06:27:47.599Z,6.5
2023-03-29T06:28:40.042Z,6.5
2023-03-29T06:29:40.035Z,6.5
2023-03-29T06:30:40.046Z,6.6
2023-03-29T06:31:40.095Z,6.6
2023-03-29T06:32:40.061Z,6.6
2023-03-29T06:33:40.031Z,6.6
2023-03-29T06:34:40.036Z,6.6
2023-03-29T06:35:40.083Z,6.6
2023-03-29T06:36:40.025Z,6.6
2023-03-29T06:37:40.033Z,6.6
2023-03-29T06:38:40.035Z,6.6
2023-03-29T06:39:40.155Z,6.6
2023-03-29T06:40:40.034Z,6.6
2023-03-29T06:41:40.044Z,6.6
2023-03-29T06:42:40.041Z,6.6
2023-03-29T06:43:40.036Z,6.6
2023-03-29T06:44:40.030Z,6.6
2023-03-29T06:45:40.033Z,6.6
2023-03-29T06:46:41.635Z,6.6
2023-03-29T06:47:44.508Z,6.6
2023-03-29T06:48:47.487Z,6.7
2023-03-29T06:49:40.029Z,6.7
2023-03-29T06:50:40.032Z,6.7
2023-03-29T06:51:40.037Z,6.7
2023-03-29T06:52:40.060Z,6.7
2023-03-29T06:53:40.034Z,6.7
2023-03-29T06:54:40.030Z,6.7
2023-03-29T06:55:40.035Z,6.8
2023-03-29T06:56:40.043Z,6.8
2023-03-29T06:57:40.086Z,6.8
2023-03-29T06:58:40.033Z,6.8
2023-03-29T06:59:40.033Z,6.9
2023-03-29T07:00:40.161Z,6.9
2023-03-29T07:01:40.050Z,6.9
2023-03-29T07:02:40.079Z,6.9
2023-03-29T07:03:40.037Z,7
2023-03-29T07:04:40.092Z,7
2023-03-29T07:05:40.021Z,7
2023-03-29T07:06:40.031Z,7.1
2023-03-29T07:07:41.636Z,7.1
2023-03-29T07:08:44.552Z,7.1
2023-03-29T07:09:47.567Z,7.1
2023-03-29T07:10:40.037Z,7.1
2023-03-29T07:11:40.027Z,7.1
2023-03-29T07:12:40.030Z,7.2
2023-03-29T07:13:40.050Z,7.2
2023-03-29T07:14:40.037Z,7.2
2023-03-29T07:15:40.030Z,7.2
2023-03-29T07:16:40.039Z,7.2
2023-03-29T07:17:40.070Z,7.2
2023-03-29T07:18:40.031Z,7.2
2023-03-29T07:19:40.026Z,7.2
2023-03-29T07:20:40.066Z,7.3
2023-03-29T07:21:40.034Z,7.3
2023-03-29T07:22:40.030Z,7.4
2023-03-29T07:23:40.040Z,7.4
2023-03-29T07:24:40.036Z,7.4
2023-03-29T07:25:40.032Z,7.5
2023-03-29T07:26:44.005Z,7.5
2023-03-29T07:27:40.027Z,7.5
2023-03-29T07:28:41.799Z,7.5
2023-03-29T07:29:44.730Z,7.5
2023-03-29T07:30:47.718Z,7.6
2023-03-29T07:31:40.027Z,7.6
2023-03-29T07:32:40.057Z,7.7
2023-03-29T07:33:40.218Z,7.7
2023-03-29T07:34:40.050Z,7.7
2023-03-29T07:35:40.043Z,7.8
2023-03-29T07:36:40.025Z,7.8
2023-03-29T07:37:40.036Z,7.9
2023-03-29T07:38:40.020Z,7.9
2023-03-29T07:39:40.057Z,8
2023-03-29T07:40:40.028Z,8.1
2023-03-29T07:41:40.024Z,8.1
2023-03-29T07:42:40.021Z,8.1
2023-03-29T07:43:40.029Z,8.2
2023-03-29T07:44:40.044Z,8.3
2023-03-29T07:45:40.037Z,8.3
2023-03-29T07:46:40.071Z,8.3
2023-03-29T07:47:40.049Z,8.4
2023-03-29T07:48:40.031Z,8.4
2023-03-29T07:49:40.050Z,8.4
2023-03-29T07:50:41.983Z,8.4
2023-03-29T07:51:44.835Z,8.5
2023-03-29T07:52:40.044Z,8.6
2023-03-29T07:53:40.023Z,8.6
2023-03-29T07:54:40.022Z,8.7
2023-03-29T07:55:40.028Z,8.7
2023-03-29T07:56:40.109Z,8.8
2023-03-29T07:57:40.060Z,8.9
2023-03-29T07:58:40.034Z,8.9
2023-03-29T07:59:40.038Z,9
2023-03-29T08:00:40.063Z,9
2023-03-29T08:01:40.022Z,9
2023-03-29T08:02:40.060Z,9.1
2023-03-29T08:03:40.044Z,9.1
2023-03-29T08:04:40.043Z,9.2
2023-03-29T08:05:41.634Z,9.2
2023-03-29T08:06:40.043Z,9.3
2023-03-29T08:07:40.046Z,9.4
2023-03-29T08:08:40.031Z,9.4
2023-03-29T08:09:40.041Z,9.5
2023-03-29T08:10:40.037Z,9.5
2023-03-29T08:11:42.125Z,9.5
2023-03-29T08:12:45.254Z,9.6
2023-03-29T08:13:40.037Z,9.6
2023-03-29T08:14:40.048Z,9.7
2023-03-29T08:15:40.112Z,9.7
2023-03-29T08:16:40.079Z,9.8
2023-03-29T08:17:40.099Z,9.8
2023-03-29T08:18:40.055Z,9.8
2023-03-29T08:20:40.039Z,9.8
2023-03-29T08:21:40.040Z,9.9
2023-03-29T08:22:40.070Z,9.9
2023-03-29T08:23:40.032Z,9.9
2023-03-29T08:24:40.043Z,9.9
2023-03-29T08:25:40.064Z,10
2023-03-29T08:26:40.025Z,10
2023-03-29T08:27:40.060Z,10.1
2023-03-29T08:28:40.033Z,10.1
2023-03-29T08:29:40.034Z,10.1
2023-03-29T08:30:40.049Z,10.2
2023-03-29T08:31:40.089Z,10.2
2023-03-29T08:32:42.173Z,10.2
2023-03-29T08:33:44.684Z,10.2
2023-03-29T08:34:40.038Z,10.2
2023-03-29T08:35:40.057Z,10.3
2023-03-29T08:36:40.035Z,10.3
2023-03-29T08:37:40.039Z,10.3
2023-03-29T08:38:40.030Z,10.3
2023-03-29T08:39:40.055Z,10.3
2023-03-29T08:40:40.035Z,10.3
2023-03-29T08:41:40.032Z,10.3
2023-03-29T08:42:40.034Z,10.3
2023-03-29T08:43:40.037Z,10.4
2023-03-29T08:44:40.052Z,10.4
2023-03-29T08:45:40.038Z,10.4
2023-03-29T08:46:40.047Z,10.5
2023-03-29T08:47:40.055Z,10.5
2023-03-29T08:48:40.031Z,10.5
2023-03-29T08:49:40.062Z,10.5
2023-03-29T08:50:40.025Z,10.6
2023-03-29T08:51:40.028Z,10.6
2023-03-29T08:52:40.032Z,10.6
2023-03-29T08:53:42.208Z,10.6
2023-03-29T08:54:45.220Z,10.6
2023-03-29T08:55:40.037Z,10.6
2023-03-29T08:56:40.099Z,10.6
2023-03-29T08:57:40.032Z,10.6
2023-03-29T08:58:40.030Z,10.6
2023-03-29T08:59:40.064Z,10.6
2023-03-29T09:00:40.162Z,10.6
2023-03-29T09:01:40.053Z,10.6
2023-03-29T09:02:40.086Z,10.6
2023-03-29T09:03:40.090Z,10.7
2023-03-29T09:04:40.051Z,10.7
2023-03-29T09:05:40.030Z,10.8
2023-03-29T09:06:40.022Z,10.8
2023-03-29T09:07:40.030Z,10.8
2023-03-29T09:08:40.032Z,10.9
2023-03-29T09:09:40.054Z,10.9
2023-03-29T09:10:40.035Z,10.9
2023-03-29T09:11:40.025Z,11
2023-03-29T09:12:40.034Z,11.1
2023-03-29T09:13:40.024Z,11.1
2023-03-29T09:14:42.329Z,11.1
2023-03-29T09:15:45.352Z,11.2
2023-03-29T09:16:40.028Z,11.2
2023-03-29T09:17:40.061Z,11.3
2023-03-29T09:18:40.026Z,11.3
2023-03-29T09:19:40.045Z,11.3
2023-03-29T09:20:40.039Z,11.3
2023-03-29T09:21:40.022Z,11.3
2023-03-29T09:22:40.036Z,11.3
2023-03-29T09:23:40.046Z,11.3
2023-03-29T09:24:40.054Z,11.3
2023-03-29T09:25:47.230Z,11.3
2023-03-29T09:26:40.023Z,11.2
2023-03-29T09:27:40.025Z,11.2
2023-03-29T09:28:40.026Z,11.1
2023-03-29T09:29:40.068Z,11.1
2023-03-29T09:30:40.033Z,11.1
2023-03-29T09:31:40.067Z,11.1
2023-03-29T09:32:40.061Z,11.1
2023-03-29T09:33:40.023Z,11.1
2023-03-29T09:34:40.056Z,11.1
2023-03-29T09:35:41.966Z,11.1
2023-03-29T09:36:45.395Z,11.1
2023-03-29T09:37:40.027Z,11.1
2023-03-29T09:38:40.028Z,11.1
2023-03-29T09:39:40.055Z,11.1
2023-03-29T09:40:40.029Z,11.1
2023-03-29T09:41:40.033Z,11.1
2023-03-29T09:42:40.021Z,11.1
2023-03-29T09:43:40.022Z,11.1
2023-03-29T09:44:40.050Z,11.1
2023-03-29T09:45:40.065Z,11.2
2023-03-29T09:46:40.032Z,11.2
2023-03-29T09:47:40.057Z,11.2
2023-03-29T09:48:40.041Z,11.2
2023-03-29T09:49:40.034Z,11.2
2023-03-29T09:50:40.034Z,11.3
2023-03-29T09:51:40.026Z,11.2
2023-03-29T09:52:40.050Z,11.2
2023-03-29T09:53:40.035Z,11.2
2023-03-29T09:54:40.035Z,11.2
2023-03-29T09:55:40.055Z,11.2
2023-03-29T09:56:42.517Z,11.2
2023-03-29T09:57:44.933Z,11.2
2023-03-29T09:58:40.027Z,11.2
2023-03-29T09:59:40.040Z,11.2
2023-03-29T10:00:40.031Z,11.2
2023-03-29T10:01:40.057Z,11.2
2023-03-29T10:02:40.045Z,11.2
2023-03-29T10:03:40.036Z,11.2
2023-03-29T10:04:40.048Z,11.2
2023-03-29T10:05:40.034Z,11.1
2023-03-29T10:06:40.036Z,11
2023-03-29T10:07:40.036Z,11
2023-03-29T10:08:40.035Z,10.9
2023-03-29T10:09:40.035Z,10.9
2023-03-29T10:10:40.036Z,10.8
2023-03-29T10:11:40.036Z,10.8
2023-03-29T10:12:40.025Z,10.6
2023-03-29T10:13:40.031Z,10.6
2023-03-29T10:14:40.031Z,10.4
2023-03-29T10:15:40.040Z,10.3
2023-03-29T10:16:40.056Z,10.1
2023-03-29T10:17:42.606Z,10.1
2023-03-29T10:18:40.341Z,10
2023-03-29T10:19:45.545Z,9.9
2023-03-29T10:20:40.030Z,9.9
2023-03-29T10:21:40.030Z,9.9
2023-03-29T10:22:40.049Z,9.9
2023-03-29T10:23:40.033Z,9.9
2023-03-29T10:24:40.025Z,10
2023-03-29T10:25:42.257Z,10
2023-03-29T10:26:40.025Z,10.1
2023-03-29T10:27:40.057Z,10.2
2023-03-29T10:28:40.038Z,10.2
2023-03-29T10:29:40.035Z,10.3
2023-03-29T10:30:40.042Z,10.4
2023-03-29T10:31:40.051Z,10.5
2023-03-29T10:32:40.075Z,10.5
2023-03-29T10:33:40.030Z,10.6
2023-03-29T10:34:40.032Z,10.6
2023-03-29T10:35:40.287Z,10.7
2023-03-29T10:36:40.022Z,10.7
2023-03-29T10:37:40.148Z,10.8
2023-03-29T10:38:40.029Z,10.8
2023-03-29T10:39:42.861Z,10.8
2023-03-29T10:40:45.826Z,10.9
2023-03-29T10:41:40.048Z,11
2023-03-29T10:42:40.049Z,11.1
2023-03-29T10:43:40.066Z,11.1
2023-03-29T10:44:40.035Z,11.2
2023-03-29T10:45:40.041Z,11.3
2023-03-29T10:46:40.242Z,11.4
2023-03-29T10:47:40.052Z,11.5
2023-03-29T10:48:40.050Z,11.5
2023-03-29T10:49:40.029Z,11.6
2023-03-29T10:50:40.029Z,11.6
2023-03-29T10:51:40.027Z,11.6
2023-03-29T10:52:40.036Z,11.6
2023-03-29T10:53:40.053Z,11.6
2023-03-29T10:54:40.025Z,11.6
2023-03-29T10:55:40.083Z,11.7
2023-03-29T10:56:40.222Z,11.6
2023-03-29T10:57:40.065Z,11.7
2023-03-29T10:58:40.050Z,11.6
2023-03-29T10:59:40.031Z,11.6
2023-03-29T11:00:41.997Z,11.6
2023-03-29T11:01:45.328Z,11.6
2023-03-29T11:02:40.089Z,11.6
2023-03-29T11:03:40.190Z,11.6
2023-03-29T11:04:40.068Z,11.7
2023-03-29T11:05:40.030Z,11.7
2023-03-29T11:06:40.030Z,11.7
2023-03-29T11:07:40.025Z,11.8
2023-03-29T11:08:40.033Z,11.8
2023-03-29T11:09:40.046Z,11.8
2023-03-29T11:10:40.038Z,11.9
2023-03-29T11:11:40.031Z,12
2023-03-29T11:12:40.029Z,12
2023-03-29T11:13:40.027Z,12
2023-03-29T11:14:40.042Z,12.1
2023-03-29T11:15:40.033Z,12.1
2023-03-29T11:16:40.021Z,12.1
2023-03-29T11:17:40.065Z,12.1
2023-03-29T11:18:40.029Z,12.1
2023-03-29T11:19:40.035Z,12.1
2023-03-29T11:20:40.179Z,12.2
2023-03-29T11:21:42.564Z,12.2
2023-03-29T11:22:45.925Z,12.2
2023-03-29T11:23:40.025Z,12.2
2023-03-29T11:24:40.026Z,12.2
2023-03-29T11:25:40.042Z,12.2
2023-03-29T11:26:40.027Z,12.2
2023-03-29T11:27:40.031Z,12.2
2023-03-29T11:28:40.033Z,12.2
2023-03-29T11:29:40.028Z,12.2
2023-03-29T11:30:40.051Z,12.2
2023-03-29T11:31:40.057Z,12.2
2023-03-29T11:32:40.031Z,12.2
2023-03-29T11:33:40.022Z,12.2
2023-03-29T11:34:40.031Z,12.2
2023-03-29T11:35:40.074Z,12.2
2023-03-29T11:36:40.027Z,12.2
2023-03-29T11:37:40.023Z,12.2
2023-03-29T11:38:40.026Z,12.2
2023-03-29T11:39:40.052Z,12.2
2023-03-29T11:40:40.039Z,12.2
2023-03-29T11:41:40.035Z,12.2
2023-03-29T11:42:42.650Z,12.2
2023-03-29T11:43:46.350Z,12.2
2023-03-29T11:44:40.031Z,12.2
2023-03-29T11:45:40.055Z,12.2
2023-03-29T11:46:40.054Z,12.2
2023-03-29T11:47:40.082Z,12.2
2023-03-29T11:48:40.031Z,12.2
2023-03-29T11:49:40.044Z,12.2
2023-03-29T11:50:40.026Z,12.2
2023-03-29T11:51:40.033Z,12.3
2023-03-29T11:52:40.020Z,12.3
2023-03-29T11:53:40.028Z,12.3
2023-03-29T11:54:40.039Z,12.4
2023-03-29T11:55:40.029Z,12.4
2023-03-29T11:56:40.064Z,12.4
2023-03-29T11:57:40.030Z,12.5
2023-03-29T11:58:40.034Z,12.5
2023-03-29T11:59:40.042Z,12.6
2023-03-29T12:00:40.032Z,12.7
2023-03-29T12:01:40.067Z,12.7
2023-03-29T12:02:40.517Z,12.7
2023-03-29T12:03:45.581Z,12.7
2023-03-29T12:04:46.318Z,12.8
2023-03-29T12:05:40.028Z,12.9
2023-03-29T12:06:40.031Z,12.9
2023-03-29T12:07:40.023Z,12.9
2023-03-29T12:08:40.031Z,13
2023-03-29T12:09:40.037Z,12.9
2023-03-29T12:10:40.044Z,13
2023-03-29T12:11:40.040Z,13
2023-03-29T12:12:40.047Z,13
2023-03-29T12:13:41.176Z,13.1
2023-03-29T12:14:40.029Z,13.1
2023-03-29T12:15:40.039Z,13.1
2023-03-29T12:16:40.051Z,13.1
2023-03-29T12:17:40.057Z,13.1
2023-03-29T12:18:40.262Z,13.1
2023-03-29T12:19:42.797Z,13.1
2023-03-29T12:20:40.037Z,13.1
2023-03-29T12:21:40.026Z,13.2
2023-03-29T12:22:40.043Z,13.2
2023-03-29T12:23:40.434Z,13.2
2023-03-29T12:24:43.382Z,13.2
2023-03-29T12:25:45.714Z,13.2
2023-03-29T12:26:40.026Z,13.3
2023-03-29T12:27:40.042Z,13.3
2023-03-29T12:28:40.025Z,13.3
2023-03-29T12:29:40.027Z,13.3
2023-03-29T12:30:40.098Z,13.3
2023-03-29T12:31:40.046Z,13.4
2023-03-29T12:32:40.037Z,13.5
2023-03-29T12:33:40.033Z,13.5
2023-03-29T12:34:40.055Z,13.6
2023-03-29T12:35:40.069Z,13.7
2023-03-29T12:36:40.021Z,13.9
2023-03-29T12:37:40.031Z,14
2023-03-29T12:38:40.031Z,14
2023-03-29T12:39:40.030Z,14.1
2023-03-29T12:40:40.028Z,14.1
2023-03-29T12:42:40.027Z,14.2
2023-03-29T12:43:40.051Z,14.2
2023-03-29T12:44:40.539Z,14.2
2023-03-29T12:45:43.063Z,14.3
2023-03-29T12:46:46.430Z,14.4
2023-03-29T12:47:40.070Z,14.5
2023-03-29T12:48:40.048Z,14.5
2023-03-29T12:49:40.043Z,14.6
2023-03-29T12:50:40.035Z,14.7
2023-03-29T12:51:40.033Z,14.8
2023-03-29T12:52:40.029Z,14.9
2023-03-29T12:53:40.031Z,14.9
2023-03-29T12:54:40.043Z,15
2023-03-29T12:55:40.174Z,15.1
2023-03-29T12:56:40.066Z,15.1
2023-03-29T12:57:40.033Z,15.2
2023-03-29T12:58:40.191Z,15.3
2023-03-29T12:59:40.047Z,15.3
2023-03-29T13:00:40.034Z,15.5
2023-03-29T13:01:40.085Z,15.5
2023-03-29T13:02:40.137Z,15.6
2023-03-29T13:03:40.031Z,15.7
2023-03-29T13:04:40.037Z,15.7
2023-03-29T13:05:40.665Z,15.7
2023-03-29T13:06:43.119Z,15.8
2023-03-29T13:07:46.450Z,15.8
2023-03-29T13:08:40.032Z,15.8
2023-03-29T13:09:40.052Z,15.8
2023-03-29T13:10:40.038Z,15.8
2023-03-29T13:11:40.081Z,15.9
2023-03-29T13:12:40.036Z,15.9
2023-03-29T13:13:40.036Z,15.9
2023-03-29T13:14:40.025Z,15.9
2023-03-29T13:15:40.069Z,16
2023-03-29T13:16:40.028Z,16
2023-03-29T13:17:40.066Z,16
2023-03-29T13:18:40.055Z,16
2023-03-29T13:19:40.038Z,16
2023-03-29T13:20:40.050Z,15.9
2023-03-29T13:21:40.025Z,15.9
2023-03-29T13:22:40.036Z,15.9
2023-03-29T13:23:40.029Z,15.8
2023-03-29T13:24:40.026Z,15.7
2023-03-29T13:25:40.046Z,15.7
2023-03-29T13:26:40.035Z,15.7
2023-03-29T13:27:41.094Z,15.7
2023-03-29T13:28:43.906Z,15.7
2023-03-29T13:29:46.781Z,15.6
2023-03-29T13:30:40.064Z,15.6
2023-03-29T13:31:40.077Z,15.6
2023-03-29T13:32:40.073Z,15.5
2023-03-29T13:33:40.032Z,15.5
2023-03-29T13:34:40.070Z,15.5
2023-03-29T13:35:40.140Z,15.5
2023-03-29T13:36:40.049Z,15.5
2023-03-29T13:37:40.033Z,15.5
2023-03-29T13:38:40.052Z,15.5
2023-03-29T13:40:40.078Z,15.5
2023-03-29T13:41:40.039Z,15.5
2023-03-29T13:42:40.056Z,15.5
2023-03-29T13:43:40.041Z,15.5
2023-03-29T13:44:40.034Z,15.5
2023-03-29T13:45:40.030Z,15.4
2023-03-29T13:46:40.091Z,15.4